Colvin, New York
Current Conditions -  °F | °C
As of 3:54 AM on Friday 28 Nov 2014 (Local Time) from KSYR Reporting Station
Broken Clouds Broken Clouds  
Wind Chill: 15°   Ceiling: 10000
Heat Index: 24°   Visibility: 10mi
Dew Point: 20°   Wind: 8mph
Humidity: 84%   Direction: 280°W
Pressure: 30.12"   Gusts: NA
Location:  43.0062°N, 76.1429°W
Report Text: KSYR 280854Z 28007KT 10SM SCT033 SCT080 BKN100 M04/M07 A3012 RMK AO2 SLP201 T10441067 52017
Loading
Personal Weather Stations






























Interactive Weather Map New forecast layout! Learn more

10-Day Weather Forecast

Advertisements
Track Severe Weather on mobile